Time;durP1;ratioP1;P1;durP2;ratioP2;P2;SDS_P1;SDS_P2;PMS_P1;PMS_P2;Temp;Humidity;BMP_temperature;BMP_pressure;BME280_temperature;BME280_humidity;BME280_pressure;Samples;Min_cycle;Max_cycle;Signal;HPM_P1;HPM_P2
2023/04/03 00:01:33;;;;;;;0.98;0.52;;;2.00;1.00;;;;;;5135532;27;20035;-64
2023/04/03 00:03:58;;;;;;;0.40;0.40;;;2.00;1.00;;;;;;5116793;27;20062;-64
2023/04/03 00:06:24;;;;;;;0.55;0.50;;;2.00;99.90;;;;;;5135313;27;20067;-64
2023/04/03 00:08:51;;;;;;;0.95;0.52;;;1.90;99.90;;;;;;5116834;27;20042;-64
2023/04/03 00:11:17;;;;;;;0.40;0.40;;;1.90;1.00;;;;;;5135217;27;20039;-64
2023/04/03 00:13:43;;;;;;;0.60;0.32;;;1.90;1.00;;;;;;5116747;27;20050;-64
2023/04/03 00:16:10;;;;;;;0.32;0.30;;;1.90;1.00;;;;;;5135220;27;20043;-64
2023/04/03 00:18:37;;;;;;;0.35;0.35;;;1.80;1.00;;;;;;5134673;27;20051;-64
2023/04/03 00:21:03;;;;;;;0.50;0.50;;;1.80;1.00;;;;;;5135160;27;20035;-64
2023/04/03 00:23:29;;;;;;;1.27;0.57;;;1.80;1.00;;;;;;5116412;27;20049;-64
2023/04/03 00:25:55;;;;;;;0.85;0.43;;;1.80;1.00;;;;;;5134956;27;20114;-64
2023/04/03 00:28:21;;;;;;;2.22;0.50;;;1.70;1.00;;;;;;5134945;27;20047;-64
2023/04/03 00:30:48;;;;;;;0.65;0.40;;;1.70;1.00;;;;;;5116331;27;20108;-64
2023/04/03 00:33:14;;;;;;;2.13;0.45;;;1.70;1.00;;;;;;5134871;27;20043;-64
2023/04/03 00:35:40;;;;;;;0.35;0.28;;;1.70;1.00;;;;;;5134500;27;20114;-65
2023/04/03 00:38:06;;;;;;;0.98;0.47;;;1.60;1.00;;;;;;5133898;27;20074;-65
2023/04/03 00:40:38;;;;;;;0.30;0.30;;;1.60;1.00;;;;;;5116467;27;20086;-64
2023/04/03 00:43:21;;;;;;;0.47;0.35;;;1.60;1.00;;;;;;5134699;27;20075;-64
2023/04/03 00:45:49;;;;;;;0.75;0.50;;;1.60;1.00;;;;;;5134652;27;20107;-64
2023/04/03 00:48:32;;;;;;;0.43;0.40;;;1.60;1.00;;;;;;5134267;27;20043;-64
2023/04/03 00:50:59;;;;;;;0.35;0.35;;;1.50;1.00;;;;;;5134377;27;20039;-65
2023/04/03 00:53:37;;;;;;;0.65;0.40;;;1.40;1.00;;;;;;5134451;27;20097;-64
2023/04/03 00:56:09;;;;;;;0.28;0.28;;;1.50;1.00;;;;;;5134273;27;20039;-66
2023/04/03 00:58:42;;;;;;;0.30;0.25;;;1.40;1.00;;;;;;5115728;27;20050;-64
2023/04/03 01:01:12;;;;;;;0.32;0.22;;;1.40;1.00;;;;;;5134444;27;20035;-64
2023/04/03 01:03:38;;;;;;;0.68;0.50;;;1.40;1.00;;;;;;5134362;27;20087;-64
2023/04/03 01:06:04;;;;;;;0.55;0.35;;;1.30;1.00;;;;;;5134331;27;20039;-64
2023/04/03 01:08:30;;;;;;;1.50;0.57;;;1.30;1.00;;;;;;5134265;27;20047;-64
2023/04/03 01:10:56;;;;;;;0.70;0.40;;;1.30;1.00;;;;;;5134296;27;20474;-64
2023/04/03 01:13:29;;;;;;;4.63;0.47;;;1.30;1.00;;;;;;5134200;27;20179;-64
2023/04/03 01:15:55;;;;;;;0.70;0.50;;;1.30;1.00;;;;;;5115750;27;20043;-63
2023/04/03 01:18:23;;;;;;;2.45;1.30;;;1.30;1.00;;;;;;5115263;27;20526;-64
2023/04/03 01:20:55;;;;;;;0.60;0.52;;;1.20;1.00;;;;;;5098480;27;20050;-64
2023/04/03 01:23:32;;;;;;;0.50;0.40;;;1.30;1.00;;;;;;5134025;27;20135;-64
2023/04/03 01:25:58;;;;;;;0.47;0.43;;;1.30;1.00;;;;;;5134122;27;20035;-64
2023/04/03 01:28:30;;;;;;;0.47;0.47;;;1.20;1.00;;;;;;5133751;27;20509;-64
2023/04/03 01:31:15;;;;;;;1.75;0.50;;;1.20;1.00;;;;;;5133994;28;20135;-64
2023/04/03 01:33:42;;;;;;;2.40;0.68;;;1.20;1.00;;;;;;5098364;28;20046;-64
2023/04/03 01:36:13;;;;;;;1.67;0.70;;;1.20;1.00;;;;;;5133948;28;20474;-64
2023/04/03 01:38:39;;;;;;;1.65;0.68;;;1.20;1.00;;;;;;5133870;28;20039;-64
2023/04/03 01:41:04;;;;;;;1.75;0.73;;;1.20;1.00;;;;;;5115637;28;20069;-64
2023/04/03 01:43:30;;;;;;;1.58;0.60;;;1.20;1.00;;;;;;5133902;28;20032;-65
2023/04/03 01:45:55;;;;;;;0.63;0.40;;;1.20;1.00;;;;;;5133910;28;20035;-64
2023/04/03 01:48:21;;;;;;;1.85;0.60;;;1.10;1.00;;;;;;5115546;28;20035;-64
2023/04/03 01:50:47;;;;;;;1.48;0.63;;;1.20;1.00;;;;;;5136754;27;20031;-64
2023/04/03 01:53:13;;;;;;;1.50;0.65;;;1.20;1.00;;;;;;5137686;27;20087;-65
2023/04/03 01:55:38;;;;;;;1.25;0.50;;;1.50;1.00;;;;;;5138012;27;20488;-64
2023/04/03 01:58:04;;;;;;;0.60;0.40;;;1.10;1.00;;;;;;5137816;27;20431;-64
2023/04/03 02:00:30;;;;;;;6.53;0.73;;;1.10;1.00;;;;;;5137594;27;20107;-64
2023/04/03 02:02:56;;;;;;;2.63;0.75;;;1.10;1.00;;;;;;5136258;27;20118;-64
2023/04/03 02:05:23;;;;;;;0.90;0.45;;;1.10;1.00;;;;;;5119208;27;20039;-64
2023/04/03 02:07:48;;;;;;;0.85;0.60;;;1.10;1.00;;;;;;5137699;27;20072;-64
2023/04/03 02:10:14;;;;;;;3.35;0.70;;;1.10;1.00;;;;;;5137626;27;20146;-64
2023/04/03 02:12:40;;;;;;;1.38;0.68;;;1.10;1.00;;;;;;5137316;27;20042;-64
2023/04/03 02:15:06;;;;;;;2.72;0.50;;;1.00;1.00;;;;;;5137597;27;20074;-64
2023/04/03 02:17:32;;;;;;;1.40;0.57;;;1.00;1.00;;;;;;5137259;27;20055;-64
2023/04/03 02:19:58;;;;;;;0.70;0.60;;;1.20;1.00;;;;;;5137529;27;20487;-64
2023/04/03 02:22:23;;;;;;;1.00;0.55;;;1.00;1.00;;;;;;5137354;27;20035;-64
2023/04/03 02:24:49;;;;;;;2.00;0.80;;;1.00;1.00;;;;;;5137417;27;20076;-64
2023/04/03 02:27:15;;;;;;;2.08;0.73;;;1.00;1.00;;;;;;5137262;27;20371;-64
2023/04/03 02:29:41;;;;;;;0.73;0.50;;;1.00;1.00;;;;;;5118593;27;20054;-64
2023/04/03 02:32:06;;;;;;;0.73;0.57;;;0.90;1.00;;;;;;5137292;27;20035;-65
2023/04/03 02:34:32;;;;;;;1.70;0.60;;;0.90;1.00;;;;;;5137223;27;20470;-64
2023/04/03 02:36:58;;;;;;;1.48;0.50;;;0.80;1.00;;;;;;5137106;27;20043;-64
2023/04/03 02:39:23;;;;;;;0.50;0.50;;;0.80;1.00;;;;;;5118388;27;20035;-64
2023/04/03 02:41:49;;;;;;;0.85;0.52;;;0.80;1.00;;;;;;5137213;27;20054;-64
2023/04/03 02:44:15;;;;;;;1.27;0.55;;;0.80;13.80;;;;;;5137088;27;20075;-64
2023/04/03 02:46:40;;;;;;;0.63;0.63;;;0.70;26.10;;;;;;5136701;27;20066;-64
2023/04/03 02:49:06;;;;;;;1.45;0.60;;;0.70;17.00;;;;;;5136981;27;20031;-64
2023/04/03 02:51:32;;;;;;;4.10;0.57;;;0.70;15.60;;;;;;5136920;27;20458;-64
2023/04/03 02:53:58;;;;;;;0.60;0.57;;;0.70;5.10;;;;;;5136904;27;20071;-69
2023/04/03 02:56:23;;;;;;;0.60;0.57;;;0.60;12.20;;;;;;5136560;27;20375;-64
2023/04/03 02:58:49;;;;;;;0.73;0.68;;;0.60;12.40;;;;;;5136742;27;20050;-64
2023/04/03 03:01:15;;;;;;;0.98;0.60;;;0.60;14.40;;;;;;5135864;27;20084;-64
2023/04/03 03:03:40;;;;;;;2.75;0.70;;;0.50;18.90;;;;;;5136307;27;20027;-64
2023/04/03 03:06:16;;;;;;;4.63;0.80;;;0.50;16.10;;;;;;5136287;27;20039;-64
2023/04/03 03:08:42;;;;;;;1.25;0.52;;;0.40;13.00;;;;;;5136576;27;20035;-64
2023/04/03 03:11:09;;;;;;;1.27;0.75;;;0.40;17.80;;;;;;5136495;27;20035;-64
2023/04/03 03:13:35;;;;;;;0.50;0.50;;;0.80;28.50;;;;;;5136495;27;20050;-64
2023/04/03 03:16:01;;;;;;;0.40;0.40;;;0.30;32.90;;;;;;5136477;27;20039;-64
2023/04/03 03:18:27;;;;;;;2.42;0.70;;;1.30;28.30;;;;;;5136034;27;20047;-64
2023/04/03 03:20:55;;;;;;;0.75;0.52;;;0.30;27.30;;;;;;5136272;27;20054;-65
2023/04/03 03:23:22;;;;;;;2.28;0.90;;;0.20;37.40;;;;;;5117910;27;20043;-64
2023/04/03 03:25:48;;;;;;;5.18;0.73;;;0.20;31.60;;;;;;5136270;27;20045;-64
2023/04/03 03:28:13;;;;;;;0.43;0.40;;;0.20;30.10;;;;;;5117790;27;20453;-64
2023/04/03 03:30:39;;;;;;;3.70;0.82;;;0.20;35.50;;;;;;5136115;27;20035;-64
2023/04/03 03:33:05;;;;;;;0.43;0.40;;;0.10;40.60;;;;;;5136021;27;20073;-64
2023/04/03 03:35:30;;;;;;;1.40;0.60;;;0.10;42.30;;;;;;5136094;27;20119;-64
2023/04/03 03:37:56;;;;;;;2.30;0.77;;;0.20;46.00;;;;;;5117317;27;20406;-64
2023/04/03 03:40:22;;;;;;;3.83;1.10;;;0.10;44.80;;;;;;5135957;27;20039;-64
2023/04/03 03:42:47;;;;;;;0.52;0.50;;;0.10;48.50;;;;;;5135827;27;20074;-64
2023/04/03 03:45:13;;;;;;;6.60;0.70;;;0.10;48.50;;;;;;5135929;27;20039;-65
2023/04/03 03:47:39;;;;;;;0.65;0.57;;;0.00;47.40;;;;;;5135766;27;20160;-64
2023/04/03 03:50:06;;;;;;;0.75;0.60;;;0.00;47.20;;;;;;5135426;27;20035;-64
2023/04/03 03:52:31;;;;;;;0.70;0.57;;;0.10;49.60;;;;;;5135665;27;20129;-64
2023/04/03 03:54:57;;;;;;;1.75;0.80;;;0.10;50.60;;;;;;5117273;27;20383;-64
2023/04/03 03:57:23;;;;;;;1.48;0.90;;;0.00;49.50;;;;;;5135228;27;20546;-64
2023/04/03 03:59:48;;;;;;;0.75;0.60;;;0.00;48.20;;;;;;5135232;27;20043;-64
2023/04/03 04:02:14;;;;;;;1.92;1.00;;;0.00;51.60;;;;;;5116849;27;20085;-64
2023/04/03 04:04:40;;;;;;;1.55;0.77;;;0.00;54.50;;;;;;5135193;27;20474;-64
2023/04/03 04:07:06;;;;;;;1.38;0.77;;;-0.10;56.70;;;;;;5135417;27;20036;-64
2023/04/03 04:09:31;;;;;;;4.13;1.10;;;-0.10;61.20;;;;;;5135362;27;20035;-64
2023/04/03 04:11:57;;;;;;;0.98;0.73;;;-0.10;59.10;;;;;;5116616;27;20046;-64
2023/04/03 04:14:23;;;;;;;1.75;0.85;;;-0.10;60.90;;;;;;5135156;27;20398;-64
2023/04/03 04:16:49;;;;;;;2.60;0.82;;;-0.10;61.90;;;;;;5116666;27;20453;-64
2023/04/03 04:19:14;;;;;;;2.42;0.82;;;-0.10;64.00;;;;;;5135132;27;20043;-64
2023/04/03 04:21:41;;;;;;;1.48;0.80;;;-0.10;63.20;;;;;;5134928;27;20038;-64
2023/04/03 04:24:07;;;;;;;1.23;0.70;;;-0.10;63.90;;;;;;5135080;27;20099;-64
2023/04/03 04:26:33;;;;;;;5.78;1.15;;;-0.10;64.20;;;;;;5135024;27;20039;-64
2023/04/03 04:28:58;;;;;;;1.05;0.65;;;-0.10;64.20;;;;;;5135075;27;20394;-64
2023/04/03 04:31:24;;;;;;;1.42;0.70;;;-0.20;63.50;;;;;;5116219;27;20039;-64
2023/04/03 04:33:50;;;;;;;1.40;0.70;;;-0.20;68.60;;;;;;5116640;27;20104;-65
2023/04/03 04:36:15;;;;;;;2.92;0.90;;;-0.20;64.70;;;;;;5134504;27;20118;-64
2023/04/03 04:38:41;;;;;;;2.80;1.00;;;-0.20;64.70;;;;;;5134752;27;20122;-64
2023/04/03 04:41:07;;;;;;;1.95;0.90;;;-0.20;65.80;;;;;;5116377;27;20031;-64
2023/04/03 04:43:33;;;;;;;0.95;0.63;;;-0.20;65.70;;;;;;5134732;27;20039;-64
2023/04/03 04:46:07;;;;;;;1.92;0.85;;;-0.20;65.60;;;;;;5134706;27;20084;-64
2023/04/03 04:48:34;;;;;;;1.63;0.52;;;0.70;69.30;;;;;;5134663;27;20035;-64
2023/04/03 04:51:00;;;;;;;2.30;0.77;;;-0.30;69.00;;;;;;5116205;27;20089;-65
2023/04/03 04:53:25;;;;;;;3.47;0.90;;;-0.20;66.40;;;;;;5134513;27;20078;-64
2023/04/03 04:55:52;;;;;;;3.85;0.90;;;-0.20;67.80;;;;;;5134143;27;20455;-65
2023/04/03 04:58:18;;;;;;;2.92;0.95;;;-0.30;72.20;;;;;;5134428;27;20039;-65
2023/04/03 05:00:43;;;;;;;1.80;0.93;;;-0.30;73.20;;;;;;5134103;27;20053;-65
2023/04/03 05:03:09;;;;;;;2.58;1.05;;;-0.20;73.40;;;;;;5134058;27;20394;-65
2023/04/03 05:05:35;;;;;;;0.60;0.50;;;-0.30;72.40;;;;;;5134355;27;20075;-65
2023/04/03 05:08:02;;;;;;;1.60;0.80;;;-0.20;72.40;;;;;;5134093;27;20039;-65
2023/04/03 05:10:27;;;;;;;1.98;0.80;;;-0.20;71.20;;;;;;5115546;27;20092;-65
2023/04/03 05:12:53;;;;;;;4.45;1.10;;;-0.20;72.60;;;;;;5134310;27;20043;-64
2023/04/03 05:15:19;;;;;;;1.88;0.90;;;-0.20;72.50;;;;;;5115600;28;20619;-65
2023/04/03 05:17:45;;;;;;;1.23;0.80;;;-0.20;72.60;;;;;;5133768;27;20084;-65
2023/04/03 05:20:11;;;;;;;2.15;1.02;;;-0.20;73.30;;;;;;5134166;27;20118;-65
2023/04/03 05:22:37;;;;;;;4.45;1.02;;;-0.20;74.60;;;;;;5134116;27;20503;-66
2023/04/03 05:25:03;;;;;;;2.10;0.85;;;-0.20;75.30;;;;;;5133710;27;20439;-65
2023/04/03 05:27:29;;;;;;;2.28;0.90;;;-0.20;74.30;;;;;;5133777;27;20064;-65
2023/04/03 05:29:55;;;;;;;5.28;1.30;;;-0.10;77.00;;;;;;5134059;27;20043;-65
2023/04/03 05:32:26;;;;;;;1.02;0.77;;;-0.10;78.00;;;;;;5134139;27;20082;-62
2023/04/03 05:34:52;;;;;;;;;;;0.00;75.00;;;;;;5134432;28;20031;-62
2023/04/03 05:37:18;;;;;;;1.50;0.80;;;0.00;77.60;;;;;;5133902;28;19929;-62
2023/04/03 05:39:43;;;;;;;2.47;0.93;;;0.00;77.30;;;;;;5115276;28;20035;-62
2023/04/03 05:42:09;;;;;;;1.35;1.10;;;0.10;75.20;;;;;;5133963;28;20031;-62
2023/04/03 05:44:35;;;;;;;8.02;1.35;;;0.20;75.60;;;;;;5133572;28;20486;-62
2023/04/03 05:47:00;;;;;;;3.25;0.80;;;0.20;75.60;;;;;;5133806;28;20035;-62
2023/04/03 05:49:26;;;;;;;2.53;1.20;;;0.20;75.00;;;;;;5115112;28;20035;-63
2023/04/03 05:51:52;;;;;;;2.55;1.05;;;0.30;73.60;;;;;;5133872;28;20141;-62
2023/04/03 05:54:22;;;;;;;2.33;1.15;;;0.40;73.80;;;;;;5133857;28;20099;-71
2023/04/03 05:56:49;;;;;;;2.97;1.00;;;0.40;73.30;;;;;;5115317;28;20125;-65
2023/04/03 05:59:15;;;;;;;1.40;1.00;;;0.50;71.40;;;;;;5133686;28;20023;-63
2023/04/03 06:01:40;;;;;;;1.90;1.02;;;0.50;71.80;;;;;;5133267;28;20050;-63
2023/04/03 06:04:08;;;;;;;1.92;0.85;;;0.60;72.10;;;;;;5115002;28;20042;-64
2023/04/03 06:06:49;;;;;;;5.25;1.40;;;0.70;71.70;;;;;;5115244;28;20458;-73
2023/04/03 06:09:16;;;;;;;2.73;1.23;;;0.80;68.60;;;;;;5114942;28;20035;-72
2023/04/03 06:11:42;;;;;;;3.45;1.30;;;2.60;66.90;;;;;;5114869;28;20273;-63
2023/04/03 06:14:08;;;;;;;2.55;1.10;;;0.90;65.50;;;;;;5133211;28;20390;-64
2023/04/03 06:16:34;;;;;;;3.38;1.08;;;1.00;63.60;;;;;;5133563;28;20103;-63
2023/04/03 06:19:00;;;;;;;3.25;1.48;;;1.00;59.00;;;;;;5133006;28;20051;-62
2023/04/03 06:21:26;;;;;;;6.80;1.40;;;1.10;59.60;;;;;;5115066;28;20088;-62
2023/04/03 06:23:52;;;;;;;2.60;1.05;;;1.20;56.90;;;;;;5133405;28;20035;-62
2023/04/03 06:26:17;;;;;;;1.98;0.80;;;1.30;54.60;;;;;;5133035;28;20043;-62
2023/04/03 06:28:43;;;;;;;4.80;1.15;;;1.40;49.40;;;;;;5133419;28;20051;-62
2023/04/03 06:31:08;;;;;;;3.58;1.10;;;1.40;44.00;;;;;;5133341;28;20494;-62
2023/04/03 06:33:34;;;;;;;1.83;1.13;;;1.50;40.70;;;;;;5133288;28;20051;-62
2023/04/03 06:36:04;;;;;;;4.60;1.10;;;1.60;40.70;;;;;;5133410;27;20082;-62
2023/04/03 06:38:30;;;;;;;2.95;1.30;;;1.70;39.80;;;;;;5136972;27;20126;-63
2023/04/03 06:40:55;;;;;;;1.67;0.80;;;1.80;36.80;;;;;;5137013;27;20075;-71
2023/04/03 06:43:21;;;;;;;2.55;1.10;;;1.90;33.30;;;;;;5118667;27;20043;-62
2023/04/03 06:45:47;;;;;;;2.22;1.45;;;2.00;27.90;;;;;;5136960;27;20038;-62
2023/04/03 06:48:13;;;;;;;5.47;1.30;;;2.10;22.90;;;;;;5136849;27;20502;-62
2023/04/03 06:50:39;;;;;;;2.30;1.15;;;2.20;21.70;;;;;;5136784;27;20066;-62
2023/04/03 06:53:05;;;;;;;1.95;0.98;;;2.40;24.50;;;;;;5136750;27;20046;-62
2023/04/03 06:55:31;;;;;;;1.30;1.00;;;2.40;12.10;;;;;;5136778;27;20066;-62
2023/04/03 06:57:57;;;;;;;4.40;1.30;;;2.60;2.50;;;;;;5136645;27;20130;-62
2023/04/03 07:00:22;;;;;;;4.35;1.38;;;2.60;6.20;;;;;;5136196;27;20043;-62
2023/04/03 07:02:48;;;;;;;1.80;0.70;;;2.80;1.60;;;;;;5118035;27;20039;-63
2023/04/03 07:05:14;;;;;;;2.97;1.02;;;2.90;1.00;;;;;;5118328;27;20047;-62
2023/04/03 07:07:40;;;;;;;1.95;1.25;;;3.00;1.00;;;;;;5117974;27;20081;-62
2023/04/03 07:10:07;;;;;;;1.60;1.15;;;3.20;1.00;;;;;;5136532;27;20462;-62
2023/04/03 07:12:33;;;;;;;1.63;1.00;;;3.30;1.00;;;;;;5136466;27;20050;-62
2023/04/03 07:14:59;;;;;;;2.10;0.93;;;3.30;1.00;;;;;;5136415;27;20464;-62
2023/04/03 07:17:25;;;;;;;1.52;1.00;;;3.50;1.00;;;;;;5117367;27;20502;-62
2023/04/03 07:19:51;;;;;;;4.47;1.10;;;3.60;1.00;;;;;;5135972;27;20096;-62
2023/04/03 07:22:17;;;;;;;2.03;1.05;;;3.60;1.00;;;;;;5136216;27;20443;-65
2023/04/03 07:24:43;;;;;;;7.07;2.08;;;3.80;1.00;;;;;;5136208;27;20035;-63
2023/04/03 07:27:09;;;;;;;2.50;0.80;;;3.90;1.00;;;;;;5135871;27;20039;-63
2023/04/03 07:29:35;;;;;;;0.93;0.68;;;4.10;1.00;;;;;;5117826;27;20080;-62
2023/04/03 07:32:02;;;;;;;0.93;0.60;;;4.20;1.00;;;;;;5135795;27;20506;-62
2023/04/03 07:34:28;;;;;;;2.30;1.10;;;4.30;99.90;;;;;;5135804;27;20142;-62
2023/04/03 07:36:54;;;;;;;7.53;0.88;;;4.30;99.90;;;;;;5135880;27;20045;-62
2023/04/03 07:39:20;;;;;;;0.98;0.57;;;4.40;99.90;;;;;;5117477;27;20546;-62
2023/04/03 07:41:46;;;;;;;1.40;0.93;;;4.50;99.90;;;;;;5135890;27;20136;-62
2023/04/03 07:44:11;;;;;;;0.98;0.60;;;4.60;99.90;;;;;;5135460;27;20047;-62
2023/04/03 07:46:37;;;;;;;3.15;0.98;;;4.70;99.90;;;;;;5117414;27;20035;-62
2023/04/03 07:49:03;;;;;;;2.38;0.88;;;4.80;99.90;;;;;;5135105;27;20082;-62
2023/04/03 07:51:29;;;;;;;0.82;0.50;;;4.90;1.00;;;;;;5135813;27;20062;-67
2023/04/03 07:53:55;;;;;;;1.65;0.90;;;5.00;1.00;;;;;;5117255;27;20046;-62
2023/04/03 07:56:21;;;;;;;10.77;0.85;;;5.20;99.90;;;;;;5135317;27;20542;-62
2023/04/03 07:58:47;;;;;;;2.00;0.73;;;5.30;24.70;;;;;;5135273;27;20118;-62
2023/04/03 08:01:12;;;;;;;2.55;0.93;;;5.40;99.90;;;;;;5135513;27;20043;-62
2023/04/03 08:03:39;;;;;;;1.40;0.68;;;5.30;10.60;;;;;;5135521;27;20035;-62
2023/04/03 08:06:07;;;;;;;1.85;0.93;;;5.30;99.90;;;;;;5135190;27;20105;-62
2023/04/03 08:08:33;;;;;;;2.38;1.00;;;5.50;1.00;;;;;;5135447;27;20129;-62
2023/04/03 08:11:01;;;;;;;1.88;0.80;;;5.60;99.90;;;;;;5116538;27;20405;-62
2023/04/03 08:13:27;;;;;;;1.33;0.70;;;5.50;99.90;;;;;;5135267;27;20078;-62
2023/04/03 08:15:53;;;;;;;1.85;0.73;;;5.70;99.90;;;;;;5135298;27;20047;-63
2023/04/03 08:18:21;;;;;;;1.67;0.68;;;5.60;99.90;;;;;;5134799;27;20559;-62
2023/04/03 08:20:47;;;;;;;1.52;0.65;;;6.40;1.00;;;;;;5116465;27;20406;-62
2023/04/03 08:23:13;;;;;;;4.35;0.70;;;5.70;99.90;;;;;;5135121;27;20050;-62
2023/04/03 08:25:43;;;;;;;1.27;0.60;;;5.70;44.50;;;;;;5134859;27;20042;-62
2023/04/03 08:28:11;;;;;;;1.05;0.43;;;3.70;99.90;;;;;;5135042;27;20035;-62
2023/04/03 08:30:40;;;;;;;1.70;0.50;;;6.00;1.00;;;;;;5134955;27;20071;-62
2023/04/03 08:33:06;;;;;;;2.60;0.93;;;6.00;1.00;;;;;;5134616;27;20089;-62
2023/04/03 08:35:31;;;;;;;0.98;0.50;;;6.00;1.00;;;;;;5134600;27;20039;-62
2023/04/03 08:37:57;;;;;;;1.58;0.60;;;6.00;99.90;;;;;;5134825;27;20035;-62
2023/04/03 08:40:24;;;;;;;1.00;0.57;;;6.00;1.00;;;;;;5116365;27;20050;-62
2023/04/03 08:43:03;;;;;;;1.25;0.60;;;7.00;1.00;;;;;;5134703;27;20042;-62
2023/04/03 08:45:45;;;;;;;1.35;0.57;;;6.30;1.00;;;;;;5116014;27;20383;-62
2023/04/03 08:48:23;;;;;;;1.35;0.88;;;6.40;1.00;;;;;;5134641;27;20113;-62
2023/04/03 08:50:54;;;;;;;0.90;0.47;;;6.40;99.90;;;;;;5134615;27;20490;-62
2023/04/03 08:53:24;;;;;;;2.78;0.80;;;6.60;99.90;;;;;;5116185;27;20046;-62
2023/04/03 08:55:51;;;;;;;1.00;0.57;;;6.60;99.90;;;;;;5134522;27;20510;-62
2023/04/03 08:58:22;;;;;;;0.70;0.52;;;6.40;99.90;;;;;;5134035;27;20045;-62
2023/04/03 09:00:58;;;;;;;1.92;0.68;;;7.10;99.90;;;;;;5133979;27;20060;-62
2023/04/03 09:03:23;;;;;;;0.73;0.50;;;6.50;99.90;;;;;;5134339;27;20046;-62
2023/04/03 09:05:52;;;;;;;1.75;0.60;;;6.70;99.90;;;;;;5134290;27;20454;-62
2023/04/03 09:08:31;;;;;;;1.25;0.47;;;6.90;99.90;;;;;;5134058;27;20515;-62
2023/04/03 09:11:21;;;;;;;1.65;0.85;;;6.90;99.90;;;;;;5134282;27;20074;-62
2023/04/03 09:14:06;;;;;;;2.37;0.73;;;6.80;97.60;;;;;;5134281;27;20055;-62
2023/04/03 09:17:08;;;;;;;1.55;0.63;;;6.90;80.40;;;;;;5134245;27;20257;-63
2023/04/03 09:19:41;;;;;;;3.40;0.55;;;7.00;73.40;;;;;;5132544;27;20047;-62
2023/04/03 09:22:16;;;;;;;1.45;0.75;;;7.00;63.30;;;;;;5132890;27;20122;-62
2023/04/03 09:24:45;;;;;;;3.75;0.75;;;7.20;1.00;;;;;;5134139;28;20042;-63
2023/04/03 09:27:11;;;;;;;1.05;0.65;;;7.20;51.80;;;;;;5133728;27;20031;-62
2023/04/03 09:29:42;;;;;;;0.98;0.65;;;7.40;53.90;;;;;;5134003;27;20394;-62
2023/04/03 09:32:30;;;;;;;0.75;0.47;;;7.50;62.40;;;;;;5134590;27;20039;-67
2023/04/03 09:35:18;;;;;;;1.63;0.55;;;7.60;33.90;;;;;;5133635;28;20031;-65
2023/04/03 09:37:50;;;;;;;2.80;1.15;;;7.70;4.80;;;;;;5119417;28;20134;-65
2023/04/03 09:40:25;;;;;;;1.48;0.50;;;8.40;9.50;;;;;;5133624;28;20042;-65
2023/04/03 09:42:53;;;;;;;1.27;0.57;;;8.00;21.50;;;;;;5133648;28;20042;-65
2023/04/03 09:45:28;;;;;;;0.43;0.38;;;8.60;24.20;;;;;;5133660;28;20039;-65
2023/04/03 09:48:09;;;;;;;1.42;0.73;;;8.20;1.00;;;;;;5133847;28;20079;-65
2023/04/03 09:50:35;;;;;;;0.75;0.50;;;8.00;1.00;;;;;;5133914;28;20130;-66
2023/04/03 09:53:24;;;;;;;0.50;0.50;;;8.00;1.00;;;;;;5133539;28;20050;-65
2023/04/03 09:55:50;;;;;;;4.32;0.77;;;8.20;1.00;;;;;;5115241;28;20047;-67
2023/04/03 09:58:40;;;;;;;1.13;0.50;;;8.00;99.90;;;;;;5133653;28;20367;-66
2023/04/03 10:01:19;;;;;;;1.52;0.57;;;8.10;99.90;;;;;;5133378;28;20137;-65
2023/04/03 10:03:46;;;;;;;0.50;0.50;;;8.30;99.90;;;;;;5133744;28;20394;-65
2023/04/03 10:06:24;;;;;;;0.43;0.22;;;8.20;99.90;;;;;;5133654;28;20039;-65
2023/04/03 10:09:04;;;;;;;1.25;0.50;;;9.10;99.90;;;;;;5098321;28;20509;-65
2023/04/03 10:11:30;;;;;;;3.50;0.40;;;8.60;99.90;;;;;;5135959;27;20058;-68
2023/04/03 10:13:59;;;;;;;0.90;0.30;;;8.40;99.90;;;;;;5137668;27;20064;-65
2023/04/03 10:16:47;;;;;;;0.65;0.40;;;8.80;99.90;;;;;;5137258;27;20038;-65
2023/04/03 10:19:25;;;;;;;0.40;0.30;;;8.90;99.90;;;;;;5137102;27;20057;-65
2023/04/03 10:22:00;;;;;;;1.10;0.70;;;9.00;99.90;;;;;;5137389;27;20051;-65
2023/04/03 10:24:51;;;;;;;0.73;0.47;;;8.90;99.90;;;;;;5137399;27;20043;-65
2023/04/03 10:27:44;;;;;;;0.95;0.30;;;8.80;99.90;;;;;;5137399;27;20067;-65
2023/04/03 10:30:19;;;;;;;0.35;0.30;;;9.00;99.90;;;;;;5137357;27;20486;-65
2023/04/03 10:32:53;;;;;;;1.50;0.50;;;8.90;99.90;;;;;;5137363;27;20035;-65
2023/04/03 10:35:32;;;;;;;1.10;0.40;;;8.90;99.90;;;;;;5137298;27;20039;-66
2023/04/03 10:38:22;;;;;;;3.03;0.55;;;8.90;99.90;;;;;;5137068;27;20046;-66
2023/04/03 10:41:23;;;;;;;1.23;0.40;;;9.00;99.90;;;;;;5118778;27;20043;-65
2023/04/03 10:44:20;;;;;;;2.72;0.80;;;9.30;99.90;;;;;;5105272;27;20074;-65
2023/04/03 10:46:52;;;;;;;0.35;0.35;;;9.10;99.90;;;;;;5136807;27;20114;-66
2023/04/03 10:49:49;;;;;;;1.02;0.40;;;9.00;99.90;;;;;;5136912;27;20035;-65
2023/04/03 10:52:32;;;;;;;0.65;0.50;;;9.20;99.90;;;;;;5136922;27;20077;-65
2023/04/03 10:55:14;;;;;;;1.15;0.55;;;9.30;99.90;;;;;;5136897;27;20038;-65
2023/04/03 10:57:40;;;;;;;0.20;0.20;;;9.60;99.90;;;;;;5136467;27;20124;-65
2023/04/03 11:00:18;;;;;;;1.65;0.32;;;9.80;99.90;;;;;;5136540;27;20050;-66
2023/04/03 11:02:56;;;;;;;0.30;0.30;;;9.90;99.90;;;;;;5136729;27;20047;-65
2023/04/03 11:05:34;;;;;;;0.70;0.50;;;9.60;99.90;;;;;;5136400;27;20076;-65
2023/04/03 11:08:07;;;;;;;0.77;0.40;;;9.70;99.90;;;;;;5136378;27;20057;-65
2023/04/03 11:10:45;;;;;;;0.55;0.43;;;9.70;99.90;;;;;;5118251;27;20554;-66
2023/04/03 11:13:40;;;;;;;0.60;0.40;;;9.90;99.90;;;;;;5136526;27;20088;-66
2023/04/03 11:16:07;;;;;;;0.65;0.40;;;10.00;99.90;;;;;;5136654;27;20031;-66
2023/04/03 11:18:42;;;;;;;0.85;0.43;;;10.10;99.90;;;;;;5135916;27;20132;-65
2023/04/03 11:21:34;;;;;;;0.22;0.22;;;9.90;99.90;;;;;;5136361;27;20121;-65
2023/04/03 11:24:04;;;;;;;0.68;0.40;;;10.20;99.90;;;;;;5135539;27;20064;-65
2023/04/03 11:26:35;;;;;;;0.75;0.50;;;10.20;99.90;;;;;;5117911;27;20494;-65
2023/04/03 11:29:12;;;;;;;0.47;0.40;;;11.30;99.90;;;;;;5135976;27;20105;-66
2023/04/03 11:32:05;;;;;;;0.77;0.50;;;10.50;99.90;;;;;;5136234;27;20046;-65
2023/04/03 11:34:38;;;;;;;1.70;0.65;;;10.50;99.90;;;;;;5117775;27;20190;-64
2023/04/03 11:37:11;;;;;;;0.77;0.50;;;10.70;99.90;;;;;;5118099;27;20047;-63
2023/04/03 11:39:39;;;;;;;0.50;0.47;;;11.40;99.90;;;;;;5117648;27;20081;-62
2023/04/03 11:42:37;;;;;;;1.20;0.47;;;10.70;99.90;;;;;;5117289;27;20381;-62
2023/04/03 11:45:22;;;;;;;0.45;0.40;;;10.70;99.90;;;;;;5117586;27;20098;-62
2023/04/03 11:47:50;;;;;;;0.80;0.47;;;10.70;99.90;;;;;;5135554;27;20122;-62
2023/04/03 11:50:34;;;;;;;0.50;0.40;;;10.80;99.90;;;;;;5135863;27;20039;-62
2023/04/03 11:53:03;;;;;;;0.38;0.38;;;10.90;99.90;;;;;;5117166;27;20082;-62
2023/04/03 11:55:32;;;;;;;0.40;0.40;;;10.90;99.90;;;;;;5135411;27;20035;-62
2023/04/03 11:57:57;;;;;;;0.98;0.50;;;11.00;99.90;;;;;;5135542;27;20050;-62
2023/04/03 12:00:51;;;;;;;0.82;0.60;;;11.20;99.90;;;;;;5135546;27;20569;-62
2023/04/03 12:03:26;;;;;;;0.85;0.50;;;11.50;99.90;;;;;;5135270;27;20045;-62
2023/04/03 12:06:02;;;;;;;1.13;0.63;;;11.90;99.90;;;;;;5135543;27;20398;-62
2023/04/03 12:08:29;;;;;;;1.23;0.55;;;11.90;99.90;;;;;;5135100;27;20129;-62
2023/04/03 12:11:12;;;;;;;2.75;0.70;;;12.40;99.90;;;;;;5116662;27;20046;-62
2023/04/03 12:13:41;;;;;;;1.50;0.50;;;12.40;1.00;;;;;;5135035;27;20039;-62
2023/04/03 12:16:32;;;;;;;3.08;0.52;;;12.00;1.00;;;;;;5116970;27;20047;-63
2023/04/03 12:19:32;;;;;;;1.20;0.60;;;12.00;1.00;;;;;;5134842;27;20139;-62
2023/04/03 12:21:59;;;;;;;0.83;0.50;;;12.00;1.00;;;;;;5135222;27;20031;-62
2023/04/03 12:24:26;;;;;;;0.50;0.40;;;12.40;1.00;;;;;;5116689;27;20078;-62
2023/04/03 12:27:01;;;;;;;0.55;0.55;;;11.90;1.00;;;;;;5116342;27;20039;-62
2023/04/03 12:29:32;;;;;;;0.50;0.50;;;11.80;1.00;;;;;;5116350;27;20043;-62
2023/04/03 12:32:07;;;;;;;2.53;0.63;;;11.90;1.00;;;;;;5135035;27;20046;-62
2023/04/03 12:34:39;;;;;;;1.05;0.57;;;11.90;99.90;;;;;;5133706;27;20039;-62
2023/04/03 12:37:21;;;;;;;1.35;0.75;;;11.90;99.90;;;;;;5116400;27;20046;-62
2023/04/03 12:40:27;;;;;;;1.13;0.60;;;13.10;1.00;;;;;;5134521;27;20038;-62
2023/04/03 12:43:10;;;;;;;1.25;0.50;;;12.50;1.00;;;;;;5122818;27;20051;-62
2023/04/03 12:46:01;;;;;;;2.88;0.95;;;12.40;1.00;;;;;;5134717;27;20102;-62
2023/04/03 12:48:30;;;;;;;1.35;0.70;;;12.50;99.90;;;;;;5116259;27;20054;-62
2023/04/03 12:50:57;;;;;;;1.02;0.40;;;13.20;99.90;;;;;;5134633;27;20039;-62
2023/04/03 12:53:32;;;;;;;1.27;0.60;;;12.50;99.90;;;;;;5134587;27;20042;-62
2023/04/03 12:56:29;;;;;;;1.23;0.47;;;12.80;99.90;;;;;;5134541;27;20095;-62
2023/04/03 12:59:16;;;;;;;1.83;0.68;;;12.80;99.90;;;;;;5134380;27;20118;-65
2023/04/03 13:01:42;;;;;;;1.33;0.60;;;12.50;99.90;;;;;;5134098;27;20117;-62
2023/04/03 13:04:12;;;;;;;1.13;0.60;;;12.30;99.90;;;;;;5134051;27;20039;-66
2023/04/03 13:06:43;;;;;;;1.35;0.50;;;12.40;99.90;;;;;;5098791;27;20071;-62
2023/04/03 13:09:27;;;;;;;2.22;0.70;;;12.30;99.90;;;;;;5133940;27;20050;-62
2023/04/03 13:12:15;;;;;;;0.98;0.60;;;12.40;99.90;;;;;;5115871;27;20043;-63
2023/04/03 13:14:51;;;;;;;0.57;0.57;;;12.40;99.90;;;;;;5132910;27;20049;-62